createdAt,value
2023-08-02T00:02:56.629Z,23.54
2023-08-02T00:08:00.808Z,23.53
2023-08-02T00:13:03.670Z,23.48
2023-08-02T00:18:06.750Z,23.46
2023-08-02T00:23:11.078Z,23.43
2023-08-02T00:28:14.155Z,23.41
2023-08-02T00:33:17.245Z,23.40
2023-08-02T00:38:22.232Z,23.37
2023-08-02T00:43:25.066Z,23.37
2023-08-02T00:48:28.021Z,23.34
2023-08-02T00:53:32.396Z,23.33
2023-08-02T00:58:35.687Z,23.31
2023-08-02T01:03:38.735Z,23.30
2023-08-02T01:08:45.233Z,23.27
2023-08-02T01:13:51.344Z,23.24
2023-08-02T01:18:54.423Z,23.24
2023-08-02T01:23:58.705Z,23.22
2023-08-02T01:29:03.379Z,23.21
2023-08-02T01:34:06.265Z,23.20
2023-08-02T01:39:10.392Z,23.19
2023-08-02T01:44:13.345Z,23.17
2023-08-02T01:49:16.291Z,23.15
2023-08-02T01:54:21.443Z,23.14
2023-08-02T01:59:24.369Z,23.12
2023-08-02T02:04:27.453Z,23.11
2023-08-02T02:09:31.884Z,23.09
2023-08-02T02:14:34.767Z,23.08
2023-08-02T02:19:37.556Z,23.06
2023-08-02T02:24:41.766Z,23.05
2023-08-02T02:29:44.761Z,23.04
2023-08-02T02:34:47.633Z,23.04
2023-08-02T02:39:52.070Z,23.01
2023-08-02T02:44:55.120Z,22.99
2023-08-02T02:49:59.588Z,22.99
2023-08-02T02:55:03.743Z,22.96
2023-08-02T03:00:09.687Z,22.97
2023-08-02T03:05:12.550Z,22.96
2023-08-02T03:10:16.793Z,22.94
2023-08-02T03:15:19.673Z,22.94
2023-08-02T03:20:22.474Z,22.93
2023-08-02T03:25:26.776Z,22.93
2023-08-02T03:30:29.992Z,22.89
2023-08-02T03:35:32.919Z,22.88
2023-08-02T03:40:37.135Z,22.90
2023-08-02T03:45:40.003Z,22.87
2023-08-02T03:50:42.898Z,22.87
2023-08-02T03:55:47.148Z,22.86
2023-08-02T04:00:50.038Z,22.84
2023-08-02T04:05:52.840Z,22.84
2023-08-02T04:10:57.087Z,22.83
2023-08-02T04:16:00.053Z,22.81
2023-08-02T04:21:02.971Z,22.83
2023-08-02T04:26:12.192Z,22.84
2023-08-02T04:31:15.173Z,22.84
2023-08-02T04:36:18.137Z,22.85
2023-08-02T04:41:22.353Z,22.86
2023-08-02T04:46:27.486Z,22.87
2023-08-02T04:51:30.467Z,22.87
2023-08-02T04:56:34.867Z,22.89
2023-08-02T05:01:37.996Z,22.91
2023-08-02T05:06:42.112Z,22.91
2023-08-02T05:11:47.166Z,22.93
2023-08-02T05:16:50.196Z,22.93
2023-08-02T05:21:54.613Z,22.97
2023-08-02T05:26:58.883Z,22.99
2023-08-02T05:32:02.201Z,23.00
2023-08-02T05:37:06.678Z,23.00
2023-08-02T05:42:11.575Z,23.04
2023-08-02T05:47:14.760Z,23.08
2023-08-02T05:52:22.401Z,23.11
2023-08-02T05:57:28.495Z,23.18
2023-08-02T06:02:31.727Z,23.23
2023-08-02T06:07:34.923Z,23.23
2023-08-02T06:12:39.250Z,23.26
2023-08-02T06:17:42.182Z,23.33
2023-08-02T06:22:45.048Z,23.40
2023-08-02T06:27:49.364Z,23.44
2023-08-02T06:32:52.322Z,23.47
2023-08-02T06:37:55.344Z,23.26
2023-08-02T06:42:59.514Z,22.53
2023-08-02T06:48:02.523Z,22.39
2023-08-02T06:53:08.641Z,22.31
2023-08-02T06:58:19.812Z,22.32
2023-08-02T07:03:27.816Z,22.26
2023-08-02T07:08:31.022Z,22.20
2023-08-02T07:13:37.007Z,22.28
2023-08-02T07:18:40.321Z,22.17
2023-08-02T07:23:43.570Z,22.59
2023-08-02T07:28:48.945Z,22.88
2023-08-02T07:33:53.786Z,22.99
2023-08-02T07:38:57.348Z,23.09
2023-08-02T07:44:01.806Z,23.15
2023-08-02T07:49:05.329Z,23.18
2023-08-02T07:54:13.848Z,23.28
2023-08-02T07:59:21.489Z,23.36
2023-08-02T08:04:24.681Z,23.43
2023-08-02T08:09:27.683Z,23.47
2023-08-02T08:14:32.261Z,23.51
2023-08-02T08:19:35.424Z,23.58
2023-08-02T08:24:38.349Z,23.64
2023-08-02T08:29:42.614Z,23.69
2023-08-02T08:34:45.455Z,23.71
2023-08-02T08:39:51.561Z,23.73
2023-08-02T08:45:04.939Z,23.78
2023-08-02T08:50:09.730Z,23.81
2023-08-02T08:55:12.567Z,23.83
2023-08-02T09:00:17.628Z,23.84
2023-08-02T09:05:20.897Z,23.87
2023-08-02T09:10:23.833Z,23.85
2023-08-02T09:15:28.380Z,23.87
2023-08-02T09:20:31.255Z,23.90
2023-08-02T09:25:34.165Z,23.92
2023-08-02T09:30:38.652Z,23.99
2023-08-02T09:35:51.525Z,24.06
2023-08-02T09:41:35.929Z,24.14
2023-08-02T09:46:27.239Z,24.24
2023-08-02T09:51:40.432Z,24.26
2023-08-02T09:56:43.974Z,24.36
2023-08-02T10:01:48.886Z,24.41
2023-08-02T10:06:54.443Z,24.45
2023-08-02T10:12:00.055Z,24.50
2023-08-02T10:17:04.791Z,24.53
2023-08-02T10:22:07.929Z,24.58
2023-08-02T10:27:11.145Z,24.61
2023-08-02T10:32:16.225Z,24.62
2023-08-02T10:37:20.530Z,24.55
2023-08-02T10:42:24.866Z,24.54
2023-08-02T10:47:29.689Z,24.54
2023-08-02T10:52:33.416Z,24.57
2023-08-02T10:57:36.537Z,24.55
2023-08-02T11:02:48.328Z,24.47
2023-08-02T11:08:01.408Z,24.48
2023-08-02T11:13:04.564Z,24.46
2023-08-02T11:18:10.669Z,24.38
2023-08-02T11:23:23.635Z,24.32
2023-08-02T11:28:26.664Z,24.27
2023-08-02T11:33:31.077Z,24.23
2023-08-02T11:38:34.147Z,24.35
2023-08-02T11:43:37.438Z,24.33
2023-08-02T11:48:42.068Z,24.44
2023-08-02T11:53:49.812Z,24.41
2023-08-02T11:58:52.774Z,24.53
2023-08-02T12:03:58.061Z,24.49
2023-08-02T12:09:03.198Z,24.47
2023-08-02T12:14:07.478Z,24.48
2023-08-02T12:19:11.695Z,24.48
2023-08-02T12:24:14.984Z,24.45
2023-08-02T12:29:24.467Z,24.42
2023-08-02T12:34:29.364Z,24.36
2023-08-02T12:39:32.217Z,24.38
2023-08-02T12:44:35.180Z,24.36
2023-08-02T12:49:39.428Z,24.34
2023-08-02T12:54:42.694Z,24.31
2023-08-02T12:59:45.774Z,24.29
2023-08-02T13:04:50.215Z,24.31
2023-08-02T13:09:53.131Z,24.35
2023-08-02T13:14:56.515Z,24.44
2023-08-02T13:20:01.023Z,24.49
2023-08-02T13:25:05.048Z,24.50
2023-08-02T13:30:09.286Z,24.54
2023-08-02T13:35:13.996Z,24.61
2023-08-02T13:40:17.359Z,24.68
2023-08-02T13:45:20.676Z,24.73
2023-08-02T13:50:24.927Z,24.72
2023-08-02T13:55:28.069Z,24.73
2023-08-02T14:00:30.998Z,24.72
2023-08-02T14:05:35.503Z,24.71
2023-08-02T14:10:40.331Z,24.70
2023-08-02T14:15:43.491Z,24.66
2023-08-02T14:20:47.909Z,24.66
2023-08-02T14:25:50.973Z,24.63
2023-08-02T14:30:53.904Z,24.63
2023-08-02T14:35:58.481Z,24.65
2023-08-02T14:41:02.603Z,24.65
2023-08-02T14:46:05.847Z,24.65
2023-08-02T14:51:10.455Z,24.62
2023-08-02T14:56:14.470Z,24.59
2023-08-02T15:01:17.560Z,24.63
2023-08-02T15:06:26.235Z,24.67
2023-08-02T15:11:29.754Z,24.70
2023-08-02T15:16:33.089Z,24.74
2023-08-02T15:21:39.644Z,24.76
2023-08-02T15:26:42.980Z,24.81
2023-08-02T15:31:46.302Z,24.82
2023-08-02T15:36:50.915Z,24.81
2023-08-02T15:41:53.821Z,24.86
2023-08-02T15:46:56.972Z,24.94
2023-08-02T15:52:01.336Z,25.21
2023-08-02T15:57:04.763Z,28.81
2023-08-02T16:02:08.312Z,29.12
2023-08-02T16:07:12.777Z,29.97
2023-08-02T16:12:17.339Z,30.71
2023-08-02T16:17:22.520Z,28.82
2023-08-02T16:22:26.838Z,28.06
2023-08-02T16:27:29.733Z,27.91
2023-08-02T16:32:32.646Z,27.84
2023-08-02T16:37:37.081Z,27.32
2023-08-02T16:42:40.078Z,26.87
2023-08-02T16:47:43.180Z,26.62
2023-08-02T16:52:47.501Z,26.43
2023-08-02T16:57:50.381Z,25.81
2023-08-02T17:02:53.315Z,25.31
2023-08-02T17:07:57.853Z,25.26
2023-08-02T17:13:00.896Z,25.11
2023-08-02T17:18:04.690Z,25.24
2023-08-02T17:23:09.547Z,25.11
2023-08-02T17:28:12.433Z,25.00
2023-08-02T17:33:15.474Z,24.93
2023-08-02T17:38:19.867Z,24.46
2023-08-02T17:43:23.189Z,24.04
2023-08-02T17:48:26.152Z,23.68
2023-08-02T17:53:33.390Z,23.76
2023-08-02T17:58:38.309Z,23.63
2023-08-02T18:03:42.823Z,23.42
2023-08-02T18:08:48.486Z,23.58
2023-08-02T18:13:51.627Z,23.34
2023-08-02T18:18:54.620Z,23.15
2023-08-02T18:23:59.175Z,23.32
2023-08-02T18:29:02.218Z,23.13
2023-08-02T18:34:05.110Z,22.97
2023-08-02T18:39:11.056Z,23.20
2023-08-02T18:44:14.020Z,23.28
2023-08-02T18:49:16.941Z,22.85
2023-08-02T18:54:21.531Z,22.82
2023-08-02T18:59:24.388Z,22.96
2023-08-02T19:04:27.197Z,22.98
2023-08-02T19:09:32.040Z,22.67
2023-08-02T19:14:35.045Z,22.59
2023-08-02T19:19:37.945Z,22.74
2023-08-02T19:24:43.925Z,22.55
2023-08-02T19:29:46.804Z,22.83
2023-08-02T19:34:52.466Z,22.97
2023-08-02T19:39:56.714Z,22.74
2023-08-02T19:44:59.891Z,22.59
2023-08-02T19:50:02.811Z,22.73
2023-08-02T19:55:08.488Z,22.60
2023-08-02T20:00:18.880Z,22.40
2023-08-02T20:05:54.676Z,22.90
2023-08-02T20:11:01.198Z,22.59
2023-08-02T20:16:05.940Z,22.76
2023-08-02T20:21:20.958Z,23.08
2023-08-02T20:26:26.791Z,23.27
2023-08-02T20:31:35.387Z,23.28
2023-08-02T20:36:38.364Z,23.09
2023-08-02T20:41:43.225Z,22.75
2023-08-02T20:46:46.419Z,23.36
2023-08-02T20:51:49.619Z,23.44
2023-08-02T20:56:54.726Z,23.52
2023-08-02T21:01:57.678Z,23.24
2023-08-02T21:07:11.282Z,23.18
2023-08-02T21:12:16.249Z,23.07
2023-08-02T21:17:20.396Z,23.00
2023-08-02T21:22:23.237Z,22.89
2023-08-02T21:27:28.208Z,22.69
2023-08-02T21:32:41.043Z,22.56
2023-08-02T21:37:44.810Z,22.81
2023-08-02T21:42:49.209Z,22.34
2023-08-02T21:47:52.290Z,22.55
2023-08-02T21:52:55.164Z,22.96
2023-08-02T21:58:00.482Z,22.39
2023-08-02T22:03:03.535Z,22.14
2023-08-02T22:08:10.475Z,22.02
2023-08-02T22:13:15.707Z,21.90
2023-08-02T22:18:18.642Z,21.76
2023-08-02T22:23:21.502Z,21.63
2023-08-02T22:28:25.821Z,21.37
2023-08-02T22:33:28.700Z,21.29
2023-08-02T22:38:46.806Z,21.17
2023-08-02T22:43:52.756Z,20.79
2023-08-02T22:50:20.019Z,20.93
2023-08-02T22:54:21.011Z,20.83
2023-08-02T22:59:25.266Z,20.64
2023-08-02T23:04:28.325Z,20.68
2023-08-02T23:09:31.259Z,20.62
2023-08-02T23:14:35.489Z,20.48
2023-08-02T23:19:38.323Z,20.37
2023-08-02T23:24:42.772Z,20.21
2023-08-02T23:29:47.062Z,20.16
2023-08-02T23:34:49.947Z,20.51
2023-08-02T23:39:52.806Z,20.68
2023-08-02T23:44:57.007Z,20.82
2023-08-02T23:49:59.876Z,20.92
2023-08-02T23:55:02.964Z,20.99
